Trans Adriatic — C6YQ3 — position and weather

sailwx.info

Track history (hours):
 
Tides and Currents Weather Stations Pressure Air Temp Water Temp Dewpoint Dewpoint Depression Visibility Wind Speed Wind Dir Waves Ship Positions

Trans Adriatic

Last reported at 2017-Nov-23 21:27 UTC. Time now 2017-Nov-24 09:28 UTC.
Position N 41°03' E 001°36'.

Length 123 m; draft 8.7 m.

Type: Tanker. MMSI: 311041700.

Date/timePositionNaut miles runAvg speedWind from/ knotsBaromVisibWave heightAir tempDewpointWater temp
2017-Nov-23 21:27N 41°03' E 001°36'612.9
2017-Nov-23 21:00N 41°04' E 001°43'713.1
2017-Nov-23 20:30N 41°05' E 001°52'713.1
2017-Nov-23 20:00N 41°07' E 001°60'1712.1
2017-Nov-23 18:35N 41°13' E 002°22'16212.3
2017-Nov-23 05:24N 43°08' E 004°56'1311.3
2017-Nov-23 04:14N 43°21' E 004°58'2 8.4
2017-Nov-23 04:00N 43°23' E 004°57'5 8.6
2017-Nov-23 03:28N 43°25' E 004°51'1 2.5
2017-Nov-23 03:01N 43°25' E 004°50'0 0.0
2017-Nov-23 02:31N 43°25' E 004°50'  
2017-Nov-19 18:52N 38°41' E 008°37'411.7
2017-Nov-19 18:30N 38°39' E 008°42'30212.5
2017-Nov-18 18:18N 36°38' E 014°32'311.6
2017-Nov-18 18:00N 36°38' E 014°36'  
Track history (hours):
 
Tides and Currents Weather Stations Pressure Air Temp Water Temp Dewpoint Dewpoint Depression Visibility Wind Speed Wind Dir Waves Ship Positions

Trans Adriatic

Last reported at 2017-Nov-23 21:27 UTC. Time now 2017-Nov-24 09:28 UTC.
Position N 41°03' E 001°36'.

Length 123 m; draft 8.7 m.

Type: Tanker. MMSI: 311041700.

Date/timePositionNaut miles runAvg speedWind from/ knotsBaromVisibWave heightAir tempDewpointWater temp
2017-Nov-23 21:27N 41°03' E 001°36'612.9
2017-Nov-23 21:00N 41°04' E 001°43'713.1
2017-Nov-23 20:30N 41°05' E 001°52'713.1
2017-Nov-23 20:00N 41°07' E 001°60'1712.1
2017-Nov-23 18:35N 41°13' E 002°22'16212.3
2017-Nov-23 05:24N 43°08' E 004°56'1311.3
2017-Nov-23 04:14N 43°21' E 004°58'2 8.4
2017-Nov-23 04:00N 43°23' E 004°57'5 8.6
2017-Nov-23 03:28N 43°25' E 004°51'1 2.5
2017-Nov-23 03:01N 43°25' E 004°50'0 0.0
2017-Nov-23 02:31N 43°25' E 004°50'  
2017-Nov-19 18:52N 38°41' E 008°37'411.7
2017-Nov-19 18:30N 38°39' E 008°42'30212.5
2017-Nov-18 18:18N 36°38' E 014°32'311.6
2017-Nov-18 18:00N 36°38' E 014°36'  

Dump ship's entire track history